Pyengana, Australia

11:35 PM AEST on April 25, 2017 (GMT +1000)
Ballo (Pyengana) | | Change Station

Elev 528 ft 41.28 °S, 147.98 °E | Updated 42 seconds ago

Clear
Clear
46.0 °F
Feels Like 46 °F
N
2.5
Wind Variable Wind from West
Gusts 2.5 mph

Today
High -- | Low -- °F
--% Chance of Precip.
Yesterday
High -- | Low -- °F
Precip. -- in
Pressure 29.53 in
Visibility 6.2 miles
Clouds Scattered Clouds 6000 ft
Windchill 46 °F
Dew Point 45 °F
Humidity 96%
Rainfall 0.20 in
Snow Depth Not available.
6:48 AM 5:22 PM
Waning Crescent, 1% visible
METAR YMLT 251300Z AUTO 33008KT 9999 // SCT060 06/05 Q1000 RF00.0/000.0
Pressure 29.53 in
Visibility 6.2 miles
Clouds Scattered Clouds 6000 ft
Windchill 46 °F
Dew Point 45 °F
Humidity 96%
Rainfall 0.20 in
Snow Depth Not available.
6:48 AM 5:22 PM
Waning Crescent, 1% visible
METAR YMLT 251300Z AUTO 33008KT 9999 // SCT060 06/05 Q1000 RF00.0/000.0

Get Severe Weather Alerts

Thanks for signing up!

Be on the lookout for a verification email in your inbox.

You'll start receiving the daily forecast at 8 AM.

×

10-Day Weather Forecast

×

Almanac

Astronomy

Apr. 25, 2017 Rise Set
Actual Time
Civil Twilight
Nautical Twilight
Astronomical Twilight
Moon
Length of Visible Light
Length of Day
Tomorrow will be .
, % of the Moon is Illuminated

Today's Extremes

Country Highs Country Lows

Community

WunderPhotos

WunderBlog® & News

Nearby

Air Quality

  Air Quality AQ Index Pollutant
Not available.

Snow Depth

Station Depth Elevation

Earthquake Activity

City Distance Mag. Time & Date
Minimum magnitude displayed is 2.5.

Coastal Water Temperatures

Place Temperature

Stations

Nearby Weather Stations

Station Location Temp. Windchill Dew Point Humidity Wind Precip. Elev Updated Type